createdAt,value
2019-04-10T00:04:07.043Z,97.83
2019-04-10T00:09:11.195Z,97.25
2019-04-10T00:14:16.390Z,96.37
2019-04-10T00:19:20.555Z,95.90
2019-04-10T00:24:24.535Z,97.14
2019-04-10T00:29:28.474Z,97.23
2019-04-10T00:34:33.604Z,97.47
2019-04-10T00:39:38.939Z,97.88
2019-04-10T00:44:43.847Z,98.26
2019-04-10T00:49:48.273Z,98.68
2019-04-10T00:54:52.342Z,99.00
2019-04-10T00:59:56.825Z,99.61
2019-04-10T01:05:01.135Z,100.00
2019-04-10T01:10:06.282Z,100.00
2019-04-10T01:15:10.295Z,100.00
2019-04-10T01:20:15.593Z,100.00
2019-04-10T01:25:19.767Z,100.00
2019-04-10T01:30:24.366Z,100.00
2019-04-10T01:35:28.413Z,100.00
2019-04-10T01:40:32.602Z,100.00
2019-04-10T01:45:37.650Z,100.00
2019-04-10T01:50:42.331Z,100.00
2019-04-10T01:55:47.075Z,100.00
2019-04-10T02:00:52.083Z,100.00
2019-04-10T02:05:56.753Z,100.00
2019-04-10T02:11:00.965Z,100.00
2019-04-10T02:16:06.132Z,100.00
2019-04-10T02:21:10.264Z,100.00
2019-04-10T02:26:14.294Z,100.00
2019-04-10T02:31:19.160Z,100.00
2019-04-10T02:36:23.696Z,100.00
2019-04-10T02:41:27.987Z,100.00
2019-04-10T02:46:33.155Z,100.00
2019-04-10T02:51:38.720Z,100.00
2019-04-10T02:56:43.473Z,100.00
2019-04-10T03:01:49.742Z,100.00
2019-04-10T03:06:55.446Z,100.00
2019-04-10T03:11:59.803Z,100.00
2019-04-10T03:17:03.889Z,100.00
2019-04-10T03:22:09.048Z,100.00
2019-04-10T03:27:14.254Z,100.00
2019-04-10T03:32:18.897Z,100.00
2019-04-10T03:37:24.378Z,100.00
2019-04-10T03:42:28.700Z,100.00
2019-04-10T03:47:33.466Z,100.00
2019-04-10T03:52:39.442Z,100.00
2019-04-10T03:57:43.447Z,100.00
2019-04-10T04:02:48.310Z,100.00
2019-04-10T04:07:52.456Z,100.00
2019-04-10T04:12:57.228Z,100.00
2019-04-10T04:18:02.417Z,100.00
2019-04-10T04:23:07.441Z,100.00
2019-04-10T04:28:11.563Z,100.00
2019-04-10T04:33:15.723Z,100.00
2019-04-10T04:38:19.995Z,100.00
2019-04-10T04:43:25.030Z,100.00
2019-04-10T04:48:29.331Z,100.00
2019-04-10T04:53:34.443Z,100.00
2019-04-10T04:58:38.407Z,100.00
2019-04-10T05:03:42.466Z,100.00
2019-04-10T05:08:46.511Z,100.00
2019-04-10T05:13:50.994Z,100.00
2019-04-10T05:18:56.180Z,100.00
2019-04-10T05:24:00.235Z,100.00
2019-04-10T05:29:04.737Z,100.00
2019-04-10T05:34:09.336Z,100.00
2019-04-10T05:39:14.510Z,100.00
2019-04-10T05:44:19.979Z,100.00
2019-04-10T05:49:24.663Z,100.00
2019-04-10T05:54:28.995Z,99.77
2019-04-10T05:59:34.179Z,99.53
2019-04-10T06:04:38.667Z,99.37
2019-04-10T06:09:53.953Z,98.99
2019-04-10T06:14:48.580Z,98.79
2019-04-10T06:19:53.079Z,98.33
2019-04-10T06:24:57.448Z,98.26
2019-04-10T06:30:01.912Z,98.38
2019-04-10T06:35:07.929Z,98.30
2019-04-10T06:40:18.794Z,98.32
2019-04-10T06:45:18.037Z,98.51
2019-04-10T06:50:23.052Z,98.17
2019-04-10T06:55:29.946Z,97.44
2019-04-10T07:00:34.185Z,97.06
2019-04-10T07:05:49.489Z,96.82
2019-04-10T07:10:52.079Z,96.45
2019-04-10T07:15:49.888Z,96.54
2019-04-10T07:20:56.378Z,96.30
2019-04-10T07:25:59.750Z,96.12
2019-04-10T07:31:08.088Z,95.64
2019-04-10T07:36:12.890Z,95.31
2019-04-10T07:41:21.376Z,94.46
2019-04-10T07:46:22.643Z,94.01
2019-04-10T07:51:27.660Z,93.41
2019-04-10T07:56:31.844Z,92.92
2019-04-10T08:01:35.904Z,92.23
2019-04-10T08:06:39.935Z,92.31
2019-04-10T08:11:44.826Z,91.61
2019-04-10T08:16:49.742Z,91.10
2019-04-10T08:21:54.834Z,90.21
2019-04-10T08:26:59.112Z,89.23
2019-04-10T08:32:03.451Z,87.37
2019-04-10T08:37:08.131Z,83.85
2019-04-10T08:42:12.729Z,82.57
2019-04-10T08:47:17.262Z,82.58
2019-04-10T08:52:22.108Z,83.58
2019-04-10T08:57:26.330Z,83.43
2019-04-10T09:02:30.469Z,82.65
2019-04-10T09:07:34.515Z,83.63
2019-04-10T09:12:38.959Z,82.78
2019-04-10T09:17:43.797Z,81.74
2019-04-10T09:23:10.372Z,81.38
2019-04-10T09:27:53.992Z,76.21
2019-04-10T09:32:59.001Z,76.21
2019-04-10T09:38:04.231Z,73.38
2019-04-10T09:43:09.335Z,71.48
2019-04-10T09:48:13.457Z,69.05
2019-04-10T09:53:17.477Z,66.80
2019-04-10T09:58:22.543Z,65.36
2019-04-10T10:03:26.595Z,64.00
2019-04-10T10:08:31.612Z,63.21
2019-04-10T10:13:35.843Z,58.70
2019-04-10T10:18:40.015Z,60.79
2019-04-10T10:23:44.675Z,60.51
2019-04-10T10:28:48.995Z,62.54
2019-04-10T10:33:54.986Z,60.60
2019-04-10T10:39:06.841Z,58.70
2019-04-10T10:44:04.838Z,60.48
2019-04-10T10:49:08.970Z,63.29
2019-04-10T10:54:12.934Z,61.72
2019-04-10T10:59:17.935Z,59.88
2019-04-10T11:04:23.161Z,56.94
2019-04-10T11:09:28.516Z,57.78
2019-04-10T11:14:32.728Z,58.71
2019-04-10T11:19:37.120Z,58.97
2019-04-10T11:24:43.147Z,58.46
2019-04-10T11:29:46.954Z,59.30
2019-04-10T11:34:51.068Z,60.15
2019-04-10T11:39:56.280Z,59.26
2019-04-10T11:45:01.824Z,58.67
2019-04-10T11:50:09.503Z,57.32
2019-04-10T11:55:16.167Z,58.13
2019-04-10T12:00:30.796Z,59.08
2019-04-10T12:05:36.618Z,57.24
2019-04-10T12:15:50.495Z,55.53
2019-04-10T12:20:55.589Z,55.09
2019-04-10T12:25:59.722Z,52.03
2019-04-10T12:31:03.878Z,50.31
2019-04-10T12:36:08.147Z,53.20
2019-04-10T12:41:12.073Z,55.50
2019-04-10T12:46:17.767Z,51.32
2019-04-10T12:51:21.795Z,53.60
2019-04-10T12:56:26.179Z,54.71
2019-04-10T13:01:31.263Z,54.61
2019-04-10T13:06:35.160Z,54.08
2019-04-10T13:11:39.163Z,53.19
2019-04-10T13:16:43.186Z,55.12
2019-04-10T13:21:47.198Z,55.57
2019-04-10T13:26:52.194Z,55.71
2019-04-10T13:31:56.275Z,57.46
2019-04-10T13:37:00.305Z,56.31
2019-04-10T13:42:05.015Z,57.33
2019-04-10T13:47:10.287Z,56.39
2019-04-10T13:52:14.247Z,54.01
2019-04-10T13:57:22.224Z,56.93
2019-04-10T14:02:27.757Z,57.55
2019-04-10T14:07:31.944Z,58.82
2019-04-10T14:12:37.102Z,57.60
2019-04-10T14:17:41.717Z,58.55
2019-04-10T14:22:46.100Z,58.20
2019-04-10T14:27:50.287Z,58.08
2019-04-10T14:32:55.245Z,57.31
2019-04-10T14:37:59.234Z,59.63
2019-04-10T14:43:03.313Z,59.16
2019-04-10T14:48:07.882Z,57.96
2019-04-10T14:53:11.906Z,58.74
2019-04-10T14:58:24.009Z,59.72
2019-04-10T15:03:22.477Z,60.23
2019-04-10T15:08:27.878Z,58.10
2019-04-10T15:13:32.049Z,59.50
2019-04-10T15:18:37.129Z,61.05
2019-04-10T15:23:42.546Z,61.29
2019-04-10T15:28:47.719Z,62.32
2019-04-10T15:33:51.924Z,62.78
2019-04-10T15:38:55.918Z,63.55
2019-04-10T15:43:59.955Z,67.90
2019-04-10T15:49:04.167Z,70.00
2019-04-10T15:54:08.120Z,70.00
2019-04-10T15:59:12.230Z,69.81
2019-04-10T16:04:17.101Z,69.81
2019-04-10T16:09:21.346Z,68.96
2019-04-10T16:14:28.434Z,70.07
2019-04-10T16:19:31.269Z,69.47
2019-04-10T16:24:36.576Z,71.02
2019-04-10T16:29:40.916Z,72.37
2019-04-10T16:34:49.063Z,71.97
2019-04-10T16:40:00.469Z,72.37
2019-04-10T16:45:01.813Z,72.85
2019-04-10T16:50:06.380Z,73.41
2019-04-10T16:55:10.637Z,72.59
2019-04-10T17:00:17.152Z,72.75
2019-04-10T17:05:22.643Z,73.35
2019-04-10T17:10:27.932Z,73.65
2019-04-10T17:15:34.347Z,74.57
2019-04-10T17:20:38.571Z,73.81
2019-04-10T17:25:42.656Z,73.75
2019-04-10T17:30:46.595Z,74.44
2019-04-10T17:35:51.578Z,75.98
2019-04-10T17:40:58.849Z,75.69
